Accueil
METAR-TAF:

METAR-TAF

Aéroports :

Ambae, Vanuatu

latitude: 15-18-24S, longitude: 167-58-02E, altitude: 51 m

Observation

Le bulletin a été fait il y a 1 heure et 38 minutes, à 21:00 UTC
Vent 3 kt de nord/nord-ouest
Température 26°C
Humidité 89%
Pression 1015 hPa

METAR: NVSG 232100Z AUTO 34003KT //// // 26/24 Q1015 RMK NIL

Heure: 09:38 (22:38 UTC)

Prévision

Le bulletin a été fait il y a 6 heures et 38 minutes, à 16:00 UTC
Prévision valable du 23 à 18 UTC au 24 à 18 UTC
Vent 1 kt de direction variable
Visibilité 10 km ou plus
Quelques nuages à une hauteur de 2000 ft
Nuages fragmentés à une hauteur de 4000 ft
Probabilité 30%
entre IN et TE UTC
Visibilité: 9000 m
Nuages fragmentés à une hauteur de 1800 ft
faibles averses de pluie
Evoluant progressivement
du 23 à 20 UTC au 23 à 22 UTC
Vent 5 kt de nord/nord-est

TAF: NVSG 231600Z 2318/2418 VRB01KT 9999 FEW020 BKN040 PROB30 INTER 2318/2324 9000 -SHRA BKN018 BECMG 2320/2322 03005KT

Observations et prévisions météorologiques de plus de 4000 aéroports (messages METAR et TAF).

Les stations disponibles sont représentées par des disques jaunes et rouges sur la carte.

Passer la souris dessus pour voir le nom de la station.

Cliquer dessus pour voir les observations et prévisions météorologiques.

Pour changer de carte: cliquez sur les boutons verts avec une croix noire pour zoomer, sur le bouton vert avec un tiret pour effectuer un zoom arrière, ou sur les flèches vertes pour les cartes adjacentes.


METAR-TAF: